Time;durP1;ratioP1;P1;durP2;ratioP2;P2;SDS_P1;SDS_P2;PMS_P1;PMS_P2;Temp;Humidity;BMP_temperature;BMP_pressure;BME280_temperature;BME280_humidity;BME280_pressure;Samples;Min_cycle;Max_cycle;Signal;HPM_P1;HPM_P2
2022/03/28 00:00:11;;;;;;;16.30;7.18;;;6.50;99.90;;;;;;5052253;28;20071;-80
2022/03/28 00:02:40;;;;;;;15.80;7.85;;;6.50;99.90;;;;;;5052295;28;20041;-80
2022/03/28 00:05:07;;;;;;;20.60;8.50;;;6.50;99.90;;;;;;5043257;28;20057;-80
2022/03/28 00:07:32;;;;;;;36.80;9.02;;;6.50;99.90;;;;;;5052901;28;20507;-80
2022/03/28 00:09:58;;;;;;;18.52;8.52;;;6.50;99.90;;;;;;5046283;28;20064;-80
2022/03/28 00:12:24;;;;;;;17.80;8.48;;;6.50;99.90;;;;;;5043393;28;20053;-80
2022/03/28 00:14:50;;;;;;;25.30;9.30;;;6.60;99.90;;;;;;5037497;28;20037;-80
2022/03/28 00:17:15;;;;;;;17.67;9.00;;;6.50;99.90;;;;;;5041931;28;20375;-81
2022/03/28 00:19:41;;;;;;;24.20;9.65;;;6.60;99.90;;;;;;5050093;28;20052;-80
2022/03/28 00:22:07;;;;;;;20.02;9.63;;;6.60;99.90;;;;;;5054816;28;20064;-80
2022/03/28 00:24:32;;;;;;;18.90;9.93;;;6.50;99.90;;;;;;5045008;28;20406;-80
2022/03/28 00:26:58;;;;;;;23.20;10.07;;;6.60;99.90;;;;;;5045077;28;20042;-80
2022/03/28 00:29:24;;;;;;;16.60;9.50;;;6.70;99.90;;;;;;5043495;28;20167;-80
2022/03/28 00:31:50;;;;;;;28.17;10.68;;;6.70;99.90;;;;;;5049615;28;20041;-81
2022/03/28 00:34:21;;;;;;;52.70;11.15;;;6.70;99.90;;;;;;5039385;28;20045;-80
2022/03/28 00:36:48;;;;;;;18.98;9.90;;;6.70;99.90;;;;;;5043486;28;20061;-80
2022/03/28 00:39:13;;;;;;;42.65;10.85;;;6.70;99.90;;;;;;5051972;28;20067;-80
2022/03/28 00:41:39;;;;;;;21.35;10.05;;;6.70;99.90;;;;;;5051005;28;20045;-80
2022/03/28 00:44:06;;;;;;;30.42;10.98;;;6.70;99.90;;;;;;5051757;28;20045;-80
2022/03/28 00:46:32;;;;;;;27.33;10.18;;;6.70;99.90;;;;;;5038206;28;20087;-81
2022/03/28 00:48:58;;;;;;;19.42;10.20;;;6.70;99.90;;;;;;5050331;28;20118;-81
2022/03/28 00:51:24;;;;;;;36.60;10.80;;;6.60;99.90;;;;;;5049310;28;20045;-80
2022/03/28 00:53:50;;;;;;;32.20;10.98;;;6.60;99.90;;;;;;5051533;28;20094;-80
2022/03/28 00:56:16;;;;;;;45.78;10.60;;;6.60;99.90;;;;;;5041997;28;20155;-80
2022/03/28 00:58:42;;;;;;;23.80;10.07;;;6.60;99.90;;;;;;5051172;28;20101;-81
2022/03/28 01:01:11;;;;;;;28.00;10.25;;;6.60;99.90;;;;;;5048884;28;20067;-80
2022/03/28 01:03:37;;;;;;;23.70;9.35;;;6.60;99.90;;;;;;5047672;28;20046;-80
2022/03/28 01:06:03;;;;;;;26.02;9.05;;;6.60;99.90;;;;;;5048616;28;20032;-80
2022/03/28 01:08:31;;;;;;;21.88;8.55;;;6.60;99.90;;;;;;5049750;28;20068;-80
2022/03/28 01:10:58;;;;;;;31.38;8.88;;;6.60;99.90;;;;;;5048265;28;20056;-80
2022/03/28 01:13:25;;;;;;;16.30;6.68;;;6.70;99.90;;;;;;5051150;28;20083;-81
2022/03/28 01:15:51;;;;;;;48.25;8.27;;;6.60;99.90;;;;;;5050171;28;20048;-80
2022/03/28 01:18:17;;;;;;;14.70;6.72;;;6.60;99.90;;;;;;5041838;28;20491;-80
2022/03/28 01:20:43;;;;;;;20.00;6.18;;;6.70;99.90;;;;;;5047405;28;20056;-79
2022/03/28 01:23:09;;;;;;;20.80;6.43;;;6.60;99.90;;;;;;5051197;28;20048;-79
2022/03/28 01:25:35;;;;;;;18.88;4.68;;;6.50;99.90;;;;;;5028233;28;21571;-80
2022/03/28 01:28:02;;;;;;;11.57;5.00;;;6.40;99.90;;;;;;5049660;28;20060;-80
2022/03/28 01:30:31;;;;;;;48.40;7.90;;;6.40;99.90;;;;;;5030522;28;20127;-81
2022/03/28 01:32:58;;;;;;;16.52;4.80;;;6.40;99.90;;;;;;5049443;28;20044;-80
2022/03/28 01:35:25;;;;;;;17.30;4.80;;;6.40;99.90;;;;;;5050946;28;20043;-79
2022/03/28 01:37:51;;;;;;;52.00;6.35;;;6.40;99.90;;;;;;5043030;28;20040;-80
2022/03/28 01:40:16;;;;;;;53.08;5.85;;;6.30;99.90;;;;;;5049408;28;20150;-80
2022/03/28 01:42:42;;;;;;;42.42;5.57;;;6.30;99.90;;;;;;5034083;28;20057;-80
2022/03/28 01:45:08;;;;;;;25.88;4.40;;;6.30;99.90;;;;;;5049688;28;20443;-80
2022/03/28 01:47:34;;;;;;;15.00;3.60;;;6.30;99.90;;;;;;5050334;28;20064;-81
2022/03/28 01:49:59;;;;;;;19.88;3.40;;;6.20;99.90;;;;;;5050923;28;20506;-80
2022/03/28 01:52:25;;;;;;;11.45;3.40;;;6.20;99.90;;;;;;5045523;28;20041;-81
2022/03/28 01:54:50;;;;;;;13.55;3.10;;;6.20;99.90;;;;;;5045658;28;20052;-81
2022/03/28 01:57:16;;;;;;;15.63;3.10;;;6.20;99.90;;;;;;5049989;28;20437;-81
2022/03/28 01:59:41;;;;;;;14.95;3.17;;;6.20;99.90;;;;;;5048437;28;20087;-81
2022/03/28 02:02:07;;;;;;;15.45;3.03;;;6.20;99.90;;;;;;5049126;28;20390;-81
2022/03/28 02:04:32;;;;;;;38.47;3.53;;;6.20;99.90;;;;;;5030803;28;20439;-81
2022/03/28 02:06:58;;;;;;;31.40;3.78;;;6.10;99.90;;;;;;5041513;28;20400;-81
2022/03/28 02:09:24;;;;;;;17.98;3.00;;;6.10;99.90;;;;;;5039508;28;20384;-81
2022/03/28 02:11:49;;;;;;;74.60;4.82;;;6.20;99.90;;;;;;5041160;28;20437;-81
2022/03/28 02:14:15;;;;;;;33.80;3.92;;;6.10;99.90;;;;;;5032235;28;20463;-80
2022/03/28 02:16:40;;;;;;;13.38;2.95;;;6.10;99.90;;;;;;5036735;28;20485;-80
2022/03/28 02:19:06;;;;;;;7.05;3.00;;;6.10;99.90;;;;;;5045670;28;20681;-80
2022/03/28 02:21:31;;;;;;;11.68;2.83;;;6.10;99.90;;;;;;5050079;28;20098;-80
2022/03/28 02:23:57;;;;;;;29.85;3.47;;;6.10;99.90;;;;;;5045162;28;20132;-81
2022/03/28 02:26:22;;;;;;;29.58;3.35;;;6.20;99.90;;;;;;5045465;28;20041;-81
2022/03/28 02:28:48;;;;;;;26.90;3.53;;;6.10;99.90;;;;;;5050383;28;20076;-81
2022/03/28 02:31:13;;;;;;;11.35;2.70;;;6.10;99.90;;;;;;5048422;28;20117;-81
2022/03/28 02:33:39;;;;;;;8.32;2.33;;;6.10;99.90;;;;;;5036891;28;20037;-80
2022/03/28 02:36:05;;;;;;;6.85;2.53;;;6.20;99.90;;;;;;5048443;28;20582;-81
2022/03/28 02:38:31;;;;;;;16.95;2.90;;;6.10;99.90;;;;;;5049808;28;20114;-80
2022/03/28 02:40:59;;;;;;;7.78;2.83;;;6.10;99.90;;;;;;5036451;28;20135;-81
2022/03/28 02:43:27;;;;;;;12.18;3.30;;;6.20;99.90;;;;;;5042587;28;20055;-81
2022/03/28 02:45:52;;;;;;;16.95;3.00;;;6.10;99.90;;;;;;5046485;28;20051;-81
2022/03/28 02:48:18;;;;;;;9.18;3.30;;;6.10;99.90;;;;;;5049953;28;20044;-81
2022/03/28 02:50:45;;;;;;;7.00;2.40;;;6.20;99.90;;;;;;5046501;28;20096;-81
2022/03/28 02:53:11;;;;;;;21.58;3.25;;;6.20;99.90;;;;;;5030994;28;20470;-81
2022/03/28 02:55:38;;;;;;;7.93;3.00;;;6.20;99.90;;;;;;5049080;28;20053;-81
2022/03/28 02:58:04;;;;;;;7.20;3.30;;;6.20;99.90;;;;;;5048282;28;20183;-82
2022/03/28 03:00:30;;;;;;;19.13;3.40;;;6.20;99.90;;;;;;5047492;28;20351;-81
2022/03/28 03:02:55;;;;;;;10.50;3.20;;;6.20;99.90;;;;;;5048053;28;20071;-82
2022/03/28 03:05:23;;;;;;;25.85;4.20;;;6.20;99.90;;;;;;5049424;28;20053;-83
2022/03/28 03:07:52;;;;;;;103.68;6.35;;;6.20;99.90;;;;;;5031560;28;20049;-82
2022/03/28 03:10:17;;;;;;;38.58;4.07;;;6.20;99.90;;;;;;5047624;28;20069;-82
2022/03/28 03:12:43;;;;;;;82.25;5.93;;;6.20;99.90;;;;;;5048929;28;20069;-83
2022/03/28 03:15:08;;;;;;;55.75;4.90;;;6.20;99.90;;;;;;5053504;28;20132;-82
2022/03/28 03:17:36;;;;;;;21.05;4.00;;;6.10;99.90;;;;;;5068757;28;20110;-82
2022/03/28 03:20:04;;;;;;;21.05;4.72;;;6.10;99.90;;;;;;5033356;28;20085;-81
2022/03/28 03:22:29;;;;;;;25.45;5.47;;;6.10;99.90;;;;;;5032280;28;20516;-81
2022/03/28 03:24:55;;;;;;;24.38;5.05;;;6.10;99.90;;;;;;5059709;28;20081;-81
2022/03/28 03:27:20;;;;;;;18.35;4.00;;;6.10;99.90;;;;;;5034087;28;20548;-81
2022/03/28 03:29:47;;;;;;;21.42;4.25;;;6.00;99.90;;;;;;5037950;28;20080;-81
2022/03/28 03:32:13;;;;;;;27.58;4.72;;;6.00;99.90;;;;;;5042051;28;20097;-81
2022/03/28 03:34:40;;;;;;;32.58;4.22;;;6.00;99.90;;;;;;5044590;28;20359;-81
2022/03/28 03:37:07;;;;;;;38.92;5.95;;;5.90;99.90;;;;;;5051622;28;20128;-81
2022/03/28 03:39:35;;;;;;;82.85;8.02;;;5.90;99.90;;;;;;5039178;28;20055;-81
2022/03/28 03:42:01;;;;;;;21.08;5.80;;;5.90;99.90;;;;;;5047896;28;20658;-82
2022/03/28 03:44:27;;;;;;;47.33;5.88;;;5.90;99.90;;;;;;5047653;28;20072;-81
2022/03/28 03:46:53;;;;;;;81.60;7.85;;;5.90;99.90;;;;;;5053048;28;20073;-81
2022/03/28 03:49:19;;;;;;;15.82;5.57;;;5.90;99.90;;;;;;5051524;28;20045;-81
2022/03/28 03:51:45;;;;;;;52.53;6.53;;;5.90;99.90;;;;;;5052643;28;20040;-81
2022/03/28 03:54:11;;;;;;;20.45;6.25;;;5.90;99.90;;;;;;5050831;28;20383;-81
2022/03/28 03:56:37;;;;;;;13.98;6.15;;;5.90;99.90;;;;;;5048691;28;20056;-81
2022/03/28 03:59:04;;;;;;;18.95;6.45;;;5.90;99.90;;;;;;5051764;28;20136;-81
2022/03/28 04:01:30;;;;;;;19.08;6.25;;;6.00;99.90;;;;;;5039975;28;20140;-82
2022/03/28 04:03:56;;;;;;;14.68;6.22;;;6.00;99.90;;;;;;5048048;28;20045;-82
2022/03/28 04:06:22;;;;;;;24.27;6.88;;;6.00;99.90;;;;;;5032533;28;20056;-82
2022/03/28 04:08:48;;;;;;;45.25;8.35;;;6.00;99.90;;;;;;5052291;28;20057;-82
2022/03/28 04:11:14;;;;;;;23.35;7.50;;;6.00;99.90;;;;;;5052981;28;20044;-81
2022/03/28 04:13:39;;;;;;;22.65;7.18;;;6.00;99.90;;;;;;5049218;28;20051;-82
2022/03/28 04:16:05;;;;;;;22.60;7.82;;;6.00;99.90;;;;;;5050020;28;20424;-82
2022/03/28 04:18:31;;;;;;;55.50;10.20;;;6.00;99.90;;;;;;5052020;28;20048;-81
2022/03/28 04:20:57;;;;;;;22.33;8.77;;;6.00;99.90;;;;;;5047489;28;20041;-82
2022/03/28 04:23:25;;;;;;;62.83;10.13;;;6.00;99.90;;;;;;5050614;28;20053;-81
2022/03/28 04:25:50;;;;;;;25.48;9.13;;;5.90;99.90;;;;;;5030810;28;20448;-82
2022/03/28 04:28:16;;;;;;;47.20;11.40;;;6.00;99.90;;;;;;5047623;28;20049;-82
2022/03/28 04:30:42;;;;;;;43.72;10.77;;;5.90;99.90;;;;;;5047407;28;20083;-81
2022/03/28 04:33:09;;;;;;;33.30;10.20;;;5.90;99.90;;;;;;5049866;28;20040;-82
2022/03/28 04:35:36;;;;;;;38.17;10.75;;;5.90;99.90;;;;;;5052322;28;20055;-81
2022/03/28 04:38:04;;;;;;;50.22;12.88;;;5.90;99.90;;;;;;5050468;28;20057;-82
2022/03/28 04:40:30;;;;;;;27.20;11.10;;;5.90;99.90;;;;;;5049493;28;20048;-82
2022/03/28 04:42:55;;;;;;;36.85;11.80;;;5.90;99.90;;;;;;5051389;28;20079;-82
2022/03/28 04:45:21;;;;;;;42.60;13.02;;;5.90;99.90;;;;;;5050786;28;20109;-82
2022/03/28 04:47:47;;;;;;;60.00;13.15;;;5.90;99.90;;;;;;5047374;28;20045;-82
2022/03/28 04:50:13;;;;;;;26.48;11.50;;;5.90;99.90;;;;;;5051632;28;20387;-82
2022/03/28 04:52:39;;;;;;;32.17;12.23;;;5.90;99.90;;;;;;5043590;28;20037;-82
2022/03/28 04:55:07;;;;;;;33.00;12.32;;;6.00;99.90;;;;;;5049722;28;20041;-81
2022/03/28 04:57:33;;;;;;;41.85;12.63;;;5.90;99.90;;;;;;5051554;28;20421;-82
2022/03/28 04:59:59;;;;;;;38.78;13.90;;;5.90;99.90;;;;;;5050737;28;20056;-77
2022/03/28 05:02:24;;;;;;;40.33;13.52;;;5.90;99.90;;;;;;5051590;28;20093;-76
2022/03/28 05:04:50;;;;;;;34.95;14.02;;;5.90;99.90;;;;;;5033536;28;20369;-81
2022/03/28 05:07:23;;;;;;;49.85;15.30;;;5.90;99.90;;;;;;5042291;28;20056;-79
2022/03/28 05:09:49;;;;;;;38.42;14.27;;;5.90;99.90;;;;;;5045411;28;20052;-77
2022/03/28 05:12:14;;;;;;;32.25;13.93;;;5.90;99.90;;;;;;5047641;28;20049;-78
2022/03/28 05:14:40;;;;;;;64.85;18.20;;;5.90;99.90;;;;;;5048464;28;20045;-80
2022/03/28 05:17:06;;;;;;;34.15;15.82;;;6.00;99.90;;;;;;5045260;28;20037;-77
2022/03/28 05:19:31;;;;;;;36.90;15.60;;;5.90;99.90;;;;;;5045184;28;20080;-80
2022/03/28 05:21:58;;;;;;;41.63;15.20;;;5.90;99.90;;;;;;5044064;28;20065;-80
2022/03/28 05:24:23;;;;;;;35.00;15.38;;;5.90;99.90;;;;;;5045320;28;20056;-79
2022/03/28 05:26:49;;;;;;;37.80;15.80;;;5.90;99.90;;;;;;5049272;28;20041;-78
2022/03/28 05:29:15;;;;;;;46.90;16.42;;;5.90;99.90;;;;;;5044834;28;20047;-78
2022/03/28 05:31:41;;;;;;;43.08;17.60;;;5.90;99.90;;;;;;5048466;28;20053;-77
2022/03/28 05:34:07;;;;;;;51.28;17.67;;;6.00;99.90;;;;;;5041874;28;20041;-77
2022/03/28 05:36:32;;;;;;;45.88;17.42;;;5.90;99.90;;;;;;5050626;28;20048;-77
2022/03/28 05:38:58;;;;;;;43.75;17.67;;;5.90;99.90;;;;;;5047632;28;20108;-75
2022/03/28 05:41:24;;;;;;;49.70;18.63;;;5.90;99.90;;;;;;5047629;28;20102;-74
2022/03/28 05:43:49;;;;;;;51.13;17.95;;;5.90;99.90;;;;;;5048752;28;20100;-79
2022/03/28 05:46:18;;;;;;;45.83;18.90;;;5.90;99.90;;;;;;5042119;28;20056;-78
2022/03/28 05:48:43;;;;;;;43.05;18.58;;;6.00;99.90;;;;;;5045248;28;20048;-79
2022/03/28 05:51:09;;;;;;;41.15;17.33;;;6.00;99.90;;;;;;5045162;28;20041;-78
2022/03/28 05:53:35;;;;;;;52.78;18.85;;;6.00;99.90;;;;;;5054290;28;20437;-77
2022/03/28 05:56:03;;;;;;;56.20;18.25;;;6.00;99.90;;;;;;5050971;28;20056;-78
2022/03/28 05:58:29;;;;;;;54.28;17.98;;;6.00;99.90;;;;;;5053313;28;20048;-79
2022/03/28 06:00:55;;;;;;;46.97;17.92;;;6.10;99.90;;;;;;5040742;28;20497;-78
2022/03/28 06:03:21;;;;;;;45.53;18.77;;;6.00;99.90;;;;;;5065692;28;20119;-80
2022/03/28 06:05:46;;;;;;;44.35;19.27;;;6.00;99.90;;;;;;5032099;28;20467;-79
2022/03/28 06:08:16;;;;;;;40.58;18.08;;;6.00;99.90;;;;;;5048270;28;20064;-78
2022/03/28 06:10:42;;;;;;;40.75;17.98;;;6.10;99.90;;;;;;5030436;28;20124;-79
2022/03/28 06:13:08;;;;;;;61.67;19.23;;;6.20;99.90;;;;;;5049699;28;20129;-78
2022/03/28 06:15:36;;;;;;;53.97;20.83;;;6.20;99.90;;;;;;5034432;28;20369;-78
2022/03/28 06:18:06;;;;;;;46.75;17.95;;;6.10;99.90;;;;;;5040955;28;20049;-75
2022/03/28 06:20:32;;;;;;;49.05;18.90;;;6.10;99.90;;;;;;5032818;28;20092;-77
2022/03/28 06:22:59;;;;;;;40.97;18.27;;;6.20;99.90;;;;;;5030298;28;20042;-76
2022/03/28 06:25:25;;;;;;;39.28;17.63;;;6.20;99.90;;;;;;5030390;28;20077;-79
2022/03/28 06:27:50;;;;;;;44.40;18.50;;;6.20;99.90;;;;;;5039394;28;20075;-78
2022/03/28 06:30:16;;;;;;;38.15;16.88;;;6.20;99.90;;;;;;5050163;28;20045;-78
2022/03/28 06:32:42;;;;;;;40.05;16.67;;;6.30;99.90;;;;;;5048381;28;20450;-79
2022/03/28 06:35:09;;;;;;;33.80;16.35;;;6.20;99.90;;;;;;5048144;28;20040;-79
2022/03/28 06:37:35;;;;;;;35.90;16.70;;;6.30;99.90;;;;;;5064066;28;20045;-78
2022/03/28 06:40:03;;;;;;;36.95;16.98;;;6.30;99.90;;;;;;5049903;28;20055;-79
2022/03/28 06:42:30;;;;;;;40.60;15.80;;;6.30;99.90;;;;;;5048291;28;20140;-77
2022/03/28 06:44:55;;;;;;;38.72;16.65;;;6.40;99.90;;;;;;5048105;28;20048;-77
2022/03/28 06:47:21;;;;;;;41.80;17.10;;;6.30;99.90;;;;;;5050864;28;20056;-79
2022/03/28 06:49:46;;;;;;;36.80;16.40;;;6.30;99.90;;;;;;5049188;28;20056;-77
2022/03/28 06:52:12;;;;;;;36.03;16.92;;;6.20;99.90;;;;;;5049334;28;20045;-78
2022/03/28 06:54:38;;;;;;;37.65;16.40;;;6.30;99.90;;;;;;5031687;28;20048;-79
2022/03/28 06:57:03;;;;;;;32.28;15.15;;;6.40;99.90;;;;;;5049490;28;20503;-81
2022/03/28 06:59:29;;;;;;;33.50;15.82;;;6.30;99.90;;;;;;5042642;28;20083;-79
2022/03/28 07:01:56;;;;;;;40.33;17.70;;;6.30;99.90;;;;;;5039674;28;20037;-79
2022/03/28 07:04:23;;;;;;;31.80;17.08;;;6.40;99.90;;;;;;5047878;28;20064;-79
2022/03/28 07:06:49;;;;;;;34.55;16.77;;;6.50;99.90;;;;;;5047994;28;20541;-78
2022/03/28 07:09:15;;;;;;;32.10;16.75;;;6.50;99.90;;;;;;5047989;28;20040;-78
2022/03/28 07:11:43;;;;;;;35.15;16.63;;;6.50;99.90;;;;;;5042163;28;20064;-76
2022/03/28 07:14:09;;;;;;;33.03;16.50;;;6.50;99.90;;;;;;5045342;28;20670;-78
2022/03/28 07:16:35;;;;;;;41.03;15.77;;;6.60;99.90;;;;;;5043251;28;20127;-77
2022/03/28 07:19:00;;;;;;;43.15;16.45;;;6.50;99.90;;;;;;5026721;28;20108;-78
2022/03/28 07:21:26;;;;;;;34.17;16.40;;;6.50;99.90;;;;;;5045257;28;20148;-77
2022/03/28 07:23:52;;;;;;;32.75;14.98;;;6.60;99.90;;;;;;5041154;28;20049;-77
2022/03/28 07:26:20;;;;;;;26.25;14.57;;;6.60;99.90;;;;;;5047171;28;20049;-78
2022/03/28 07:28:45;;;;;;;27.52;15.25;;;6.50;99.90;;;;;;5045842;28;20447;-80
2022/03/28 07:31:11;;;;;;;26.65;14.70;;;6.50;99.90;;;;;;5044796;28;20068;-78
2022/03/28 07:33:41;;;;;;;22.85;13.32;;;6.60;99.90;;;;;;5047673;28;20115;-79
2022/03/28 07:36:08;;;;;;;27.42;14.13;;;6.60;99.90;;;;;;5045183;28;20041;-78
2022/03/28 07:38:34;;;;;;;23.40;13.85;;;6.60;99.90;;;;;;5045790;28;20505;-79
2022/03/28 07:41:00;;;;;;;21.08;12.27;;;6.70;99.90;;;;;;5045803;28;20037;-79
2022/03/28 07:43:26;;;;;;;25.42;15.05;;;6.80;99.90;;;;;;5045676;28;20102;-79
2022/03/28 07:45:54;;;;;;;24.30;14.05;;;6.90;99.90;;;;;;5044221;28;20148;-79
2022/03/28 07:48:21;;;;;;;27.15;15.02;;;6.90;99.90;;;;;;5041260;28;20144;-79
2022/03/28 07:50:47;;;;;;;29.55;16.48;;;7.00;99.90;;;;;;5044906;28;20107;-79
2022/03/28 07:53:14;;;;;;;25.42;14.43;;;7.00;99.90;;;;;;5048873;28;20049;-78
2022/03/28 07:55:40;;;;;;;26.08;14.82;;;7.10;99.90;;;;;;5045844;28;20057;-79
2022/03/28 07:58:06;;;;;;;25.98;15.32;;;7.20;99.90;;;;;;5047804;28;20107;-80
2022/03/28 08:00:33;;;;;;;26.05;14.88;;;7.30;99.90;;;;;;5049176;28;20044;-79
2022/03/28 08:02:59;;;;;;;28.50;15.88;;;7.30;99.90;;;;;;5049554;28;20460;-79
2022/03/28 08:05:25;;;;;;;32.28;16.83;;;7.20;99.90;;;;;;5050330;28;20045;-80
2022/03/28 08:07:51;;;;;;;30.77;16.83;;;7.10;99.90;;;;;;5050455;28;20143;-78
2022/03/28 08:10:18;;;;;;;28.98;16.52;;;7.10;99.90;;;;;;5048096;28;20084;-79
2022/03/28 08:12:44;;;;;;;33.92;18.08;;;7.20;99.90;;;;;;5050275;28;20199;-79
2022/03/28 08:15:12;;;;;;;29.45;16.98;;;7.10;99.90;;;;;;5048689;28;20220;-79
2022/03/28 08:17:39;;;;;;;29.10;17.17;;;7.10;99.90;;;;;;5047147;28;20116;-78
2022/03/28 08:20:09;;;;;;;32.33;17.75;;;7.20;99.90;;;;;;5049751;28;20045;-78
2022/03/28 08:22:35;;;;;;;30.88;17.63;;;7.20;99.90;;;;;;5034125;28;20055;-79
2022/03/28 08:25:01;;;;;;;31.10;17.58;;;7.20;99.90;;;;;;5048259;28;20033;-79
2022/03/28 08:27:26;;;;;;;29.35;17.20;;;7.30;99.90;;;;;;5050922;28;20056;-78
2022/03/28 08:29:52;;;;;;;28.90;16.95;;;7.30;99.90;;;;;;5048620;28;20041;-79
2022/03/28 08:32:17;;;;;;;30.73;16.40;;;7.40;99.90;;;;;;5048496;28;20505;-79
2022/03/28 08:34:46;;;;;;;28.00;16.10;;;7.30;99.90;;;;;;5049446;28;20053;-78
2022/03/28 08:37:16;;;;;;;23.98;14.65;;;7.30;99.90;;;;;;5048794;28;20355;-78
2022/03/28 08:39:43;;;;;;;25.73;15.20;;;7.30;99.90;;;;;;5047167;28;20498;-78
2022/03/28 08:42:11;;;;;;;21.35;13.50;;;7.40;99.90;;;;;;5048087;28;20155;-79
2022/03/28 08:44:41;;;;;;;22.42;12.73;;;7.50;99.90;;;;;;5048275;28;20064;-79
2022/03/28 08:47:09;;;;;;;21.77;12.70;;;7.70;99.90;;;;;;5033926;28;20059;-79
2022/03/28 08:49:35;;;;;;;17.90;10.15;;;7.80;99.90;;;;;;5049464;28;20127;-79
2022/03/28 08:52:02;;;;;;;16.73;9.73;;;7.80;99.90;;;;;;5047991;28;20095;-79
2022/03/28 08:54:28;;;;;;;19.25;11.75;;;7.90;99.90;;;;;;5039016;28;20396;-79
2022/03/28 08:56:53;;;;;;;19.30;11.85;;;8.00;99.90;;;;;;5042211;28;21725;-80
2022/03/28 08:59:19;;;;;;;18.75;11.20;;;8.10;99.90;;;;;;5047936;28;20052;-79
2022/03/28 09:01:45;;;;;;;18.48;11.43;;;8.30;99.90;;;;;;5046568;28;20052;-79
2022/03/28 09:04:12;;;;;;;18.27;10.85;;;8.40;99.90;;;;;;5048231;28;20469;-79
2022/03/28 09:06:42;;;;;;;19.10;11.27;;;8.40;99.90;;;;;;5047264;28;20443;-78
2022/03/28 09:09:24;;;;;;;20.27;11.10;;;8.30;99.90;;;;;;5029007;28;20259;-79
2022/03/28 09:11:54;;;;;;;18.52;11.07;;;8.30;99.90;;;;;;5046566;28;20037;-79
2022/03/28 09:14:33;;;;;;;18.85;9.77;;;8.20;99.90;;;;;;5047841;28;20052;-78
2022/03/28 09:17:09;;;;;;;16.67;10.20;;;8.20;99.90;;;;;;5043908;28;20606;-78
2022/03/28 09:19:46;;;;;;;;;;;8.20;99.90;;;;;;5039910;28;20426;-79
2022/03/28 09:22:15;;;;;;;17.17;10.10;;;8.20;99.90;;;;;;5048553;28;19983;-79
2022/03/28 09:24:41;;;;;;;18.25;10.32;;;8.20;99.90;;;;;;5042908;28;20068;-78
2022/03/28 09:27:17;;;;;;;17.30;10.18;;;8.30;99.90;;;;;;5049092;28;20045;-78
2022/03/28 09:30:01;;;;;;;;;;;8.40;99.90;;;;;;5047582;28;20459;-79
2022/03/28 09:32:31;;;;;;;18.45;10.35;;;8.40;99.90;;;;;;5059003;28;20020;-77
2022/03/28 09:35:10;;;;;;;18.08;10.88;;;8.40;99.90;;;;;;5048088;28;20071;-78
2022/03/28 09:38:08;;;;;;;15.90;9.45;;;8.50;99.90;;;;;;5048152;28;20235;-79
2022/03/28 09:40:45;;;;;;;15.98;9.52;;;8.50;99.90;;;;;;5039357;28;20143;-78
2022/03/28 09:43:31;;;;;;;16.15;9.00;;;8.40;99.90;;;;;;5030461;28;20053;-78
2022/03/28 09:45:58;;;;;;;13.65;8.30;;;8.50;99.90;;;;;;5028902;28;20345;-78
2022/03/28 09:48:26;;;;;;;15.20;9.00;;;8.60;99.90;;;;;;5047606;28;20045;-78
2022/03/28 09:51:01;;;;;;;15.23;8.90;;;8.60;99.90;;;;;;5045686;28;20123;-78
2022/03/28 09:53:31;;;;;;;16.55;9.98;;;8.70;99.90;;;;;;5046768;28;20411;-80
2022/03/28 09:56:04;;;;;;;15.27;8.77;;;8.90;99.90;;;;;;5046811;28;20194;-79
2022/03/28 09:58:36;;;;;;;13.27;8.45;;;8.90;99.90;;;;;;5045903;28;20063;-76
2022/03/28 10:01:06;;;;;;;15.75;9.52;;;9.00;99.90;;;;;;5047342;28;20047;-77
2022/03/28 10:03:33;;;;;;;15.20;9.27;;;9.00;99.90;;;;;;5046651;28;20080;-78
2022/03/28 10:06:06;;;;;;;13.23;7.65;;;8.90;99.90;;;;;;5046269;28;20059;-78
2022/03/28 10:08:33;;;;;;;13.80;8.15;;;9.00;99.90;;;;;;5046710;28;20044;-78
2022/03/28 10:10:59;;;;;;;12.85;7.63;;;9.20;99.90;;;;;;5042624;28;20502;-76
2022/03/28 10:13:26;;;;;;;13.13;8.13;;;9.20;99.90;;;;;;5045631;28;20037;-77
2022/03/28 10:15:52;;;;;;;12.35;7.30;;;9.40;99.90;;;;;;5046333;28;20056;-77
2022/03/28 10:18:18;;;;;;;13.38;7.00;;;9.50;99.90;;;;;;5044301;28;20094;-77
2022/03/28 10:20:52;;;;;;;11.70;7.15;;;9.60;99.90;;;;;;5053967;28;20041;-76
2022/03/28 10:23:21;;;;;;;12.52;6.88;;;9.70;99.90;;;;;;5056276;28;20128;-77
2022/03/28 10:25:46;;;;;;;11.50;7.00;;;9.70;99.90;;;;;;5026818;28;20122;-78
2022/03/28 10:28:12;;;;;;;11.43;7.18;;;9.90;99.90;;;;;;5046961;28;20394;-77
2022/03/28 10:30:40;;;;;;;13.35;7.63;;;10.00;99.90;;;;;;5047263;28;20075;-75
2022/03/28 10:33:16;;;;;;;12.05;7.00;;;10.20;99.90;;;;;;5046178;28;20049;-75
2022/03/28 10:35:54;;;;;;;11.65;6.88;;;10.20;99.90;;;;;;5046306;28;20148;-74
2022/03/28 10:38:22;;;;;;;11.30;6.38;;;10.10;99.90;;;;;;5044279;28;20103;-76
2022/03/28 10:40:58;;;;;;;10.25;6.22;;;10.20;99.90;;;;;;5041315;28;20048;-77
2022/03/28 10:43:29;;;;;;;12.13;6.97;;;10.20;99.90;;;;;;5044553;28;20037;-77
2022/03/28 10:46:09;;;;;;;12.80;7.07;;;10.30;99.90;;;;;;5045342;28;20475;-78
2022/03/28 10:48:44;;;;;;;10.32;6.43;;;10.20;99.90;;;;;;5043244;28;20064;-77
2022/03/28 10:51:18;;;;;;;12.65;7.50;;;10.30;99.90;;;;;;5045013;28;20033;-76
2022/03/28 10:53:51;;;;;;;10.15;6.63;;;10.20;99.90;;;;;;5047064;28;20041;-77
2022/03/28 10:56:18;;;;;;;12.35;6.90;;;10.20;99.90;;;;;;5046521;28;20517;-78
2022/03/28 10:58:48;;;;;;;11.60;7.22;;;10.20;99.90;;;;;;5040865;28;20475;-78
2022/03/28 11:01:19;;;;;;;13.15;7.60;;;10.20;99.90;;;;;;5046185;28;20064;-77
2022/03/28 11:04:00;;;;;;;13.23;7.72;;;10.20;99.90;;;;;;5047657;28;20151;-78
2022/03/28 11:07:03;;;;;;;11.43;7.07;;;10.30;99.90;;;;;;5040636;28;20405;-76
2022/03/28 11:09:41;;;;;;;11.27;6.75;;;10.30;99.90;;;;;;5043156;28;20131;-78
2022/03/28 11:12:13;;;;;;;13.20;7.78;;;10.40;99.90;;;;;;5042333;28;20077;-77
2022/03/28 11:14:50;;;;;;;11.90;7.07;;;10.50;99.90;;;;;;5046384;28;20044;-76
2022/03/28 11:17:30;;;;;;;11.25;6.90;;;10.60;99.90;;;;;;5043531;28;20148;-77
2022/03/28 11:20:14;;;;;;;13.27;7.68;;;10.70;99.90;;;;;;5041306;28;20407;-76
2022/03/28 11:22:49;;;;;;;12.05;7.55;;;10.50;99.90;;;;;;5043561;28;20114;-77
2022/03/28 11:25:27;;;;;;;13.20;7.45;;;10.60;99.90;;;;;;5046365;28;20106;-76
2022/03/28 11:28:02;;;;;;;13.98;7.57;;;10.70;99.90;;;;;;5044870;28;20142;-77
2022/03/28 11:30:27;;;;;;;12.02;7.63;;;10.70;99.90;;;;;;5046387;28;20045;-77
2022/03/28 11:32:54;;;;;;;11.68;6.80;;;10.80;99.90;;;;;;5041167;28;20052;-77
2022/03/28 11:35:20;;;;;;;11.27;6.97;;;10.90;99.90;;;;;;5060436;28;20069;-77
2022/03/28 11:37:47;;;;;;;13.40;7.35;;;10.90;99.90;;;;;;5049396;28;20173;-77
2022/03/28 11:40:13;;;;;;;11.52;7.07;;;11.10;99.90;;;;;;5036382;28;20041;-77
2022/03/28 11:42:46;;;;;;;13.90;8.15;;;11.10;99.90;;;;;;5048218;28;20055;-76
2022/03/28 11:45:12;;;;;;;13.43;7.30;;;11.10;99.90;;;;;;5048438;28;20041;-76
2022/03/28 11:47:48;;;;;;;12.13;7.25;;;11.10;99.90;;;;;;5031094;28;20048;-77
2022/03/28 11:50:14;;;;;;;12.27;7.28;;;11.20;99.90;;;;;;5027012;28;20042;-77
2022/03/28 11:52:40;;;;;;;12.70;7.28;;;11.20;99.90;;;;;;5048619;28;20103;-77
2022/03/28 11:55:24;;;;;;;13.60;8.20;;;11.20;99.90;;;;;;5049837;28;20117;-77
2022/03/28 12:00:39;;;;;;;14.35;8.60;;;11.40;99.90;;;;;;5057097;28;20155;-76
2022/03/28 12:03:08;;;;;;;16.42;9.18;;;11.50;99.90;;;;;;5046809;28;20041;-77
2022/03/28 12:05:35;;;;;;;15.70;9.60;;;11.50;99.90;;;;;;5046902;28;20106;-77
2022/03/28 12:08:14;;;;;;;14.05;9.00;;;11.40;99.90;;;;;;5037745;28;20042;-76
2022/03/28 12:10:43;;;;;;;14.85;9.32;;;11.30;99.90;;;;;;5045864;28;20056;-76
2022/03/28 12:13:09;;;;;;;14.35;9.60;;;11.20;99.90;;;;;;5049122;28;20044;-76
2022/03/28 12:15:43;;;;;;;14.02;9.07;;;11.10;99.90;;;;;;5050278;28;20055;-76
2022/03/28 12:18:10;;;;;;;14.70;8.65;;;11.10;99.90;;;;;;5050092;28;20116;-76
2022/03/28 12:20:38;;;;;;;14.93;8.85;;;11.20;99.90;;;;;;5046405;28;20338;-77
2022/03/28 12:23:05;;;;;;;14.48;9.38;;;11.30;99.90;;;;;;5046824;28;20169;-77
2022/03/28 12:25:36;;;;;;;13.88;8.98;;;11.40;99.90;;;;;;5046883;28;20446;-77
2022/03/28 12:28:27;;;;;;;14.82;9.27;;;11.50;99.90;;;;;;5046273;28;20720;-77
2022/03/28 12:30:56;;;;;;;14.55;9.35;;;11.60;99.90;;;;;;5040528;28;20113;-77
2022/03/28 12:33:23;;;;;;;13.48;8.48;;;11.60;99.90;;;;;;5051070;28;20142;-77
2022/03/28 12:35:51;;;;;;;16.10;9.38;;;11.80;99.90;;;;;;5049343;28;20049;-77
2022/03/28 12:38:20;;;;;;;15.27;9.43;;;11.70;99.90;;;;;;5047170;28;20048;-77
2022/03/28 12:40:49;;;;;;;14.23;9.52;;;11.70;99.90;;;;;;5047737;28;20064;-77
2022/03/28 12:43:15;;;;;;;16.98;10.18;;;11.80;99.90;;;;;;5046526;28;20040;-77
2022/03/28 12:45:42;;;;;;;13.45;9.15;;;11.90;99.90;;;;;;5045797;28;20079;-77